Time;durP1;ratioP1;P1;durP2;ratioP2;P2;SDS_P1;SDS_P2;PMS_P1;PMS_P2;Temp;Humidity;BMP_temperature;BMP_pressure;BME280_temperature;BME280_humidity;BME280_pressure;Samples;Min_cycle;Max_cycle;Signal;HPM_P1;HPM_P2
2021/05/23 00:00:28;;;;;;;8.55;0.73;;;9.80;99.90;;;;;;5008835;28;20030;-74
2021/05/23 00:02:55;;;;;;;6.15;1.30;;;9.80;99.90;;;;;;5026057;28;20080;-73
2021/05/23 00:05:24;;;;;;;6.85;1.20;;;9.80;99.90;;;;;;5026442;28;20391;-75
2021/05/23 00:07:54;;;;;;;2.05;0.65;;;9.80;99.90;;;;;;5034838;28;20427;-72
2021/05/23 00:10:20;;;;;;;9.68;1.15;;;9.80;99.90;;;;;;5046092;28;20515;-74
2021/05/23 00:12:46;;;;;;;3.47;1.75;;;9.70;99.90;;;;;;5046059;28;20047;-71
2021/05/23 00:15:17;;;;;;;1.33;0.82;;;9.80;99.90;;;;;;5046079;28;20053;-73
2021/05/23 00:17:43;;;;;;;2.80;1.17;;;9.80;99.90;;;;;;5045465;28;20089;-75
2021/05/23 00:20:10;;;;;;;7.10;1.30;;;9.70;99.90;;;;;;5028174;28;20033;-75
2021/05/23 00:22:35;;;;;;;2.55;1.38;;;9.80;99.90;;;;;;5046209;28;20029;-74
2021/05/23 00:25:01;;;;;;;6.47;1.30;;;9.70;99.90;;;;;;5045930;28;20043;-75
2021/05/23 00:27:26;;;;;;;9.27;1.05;;;9.70;99.90;;;;;;5046101;28;20026;-75
2021/05/23 00:29:52;;;;;;;8.52;0.80;;;9.70;99.90;;;;;;5045823;28;20619;-74
2021/05/23 00:32:19;;;;;;;5.97;1.17;;;9.70;99.90;;;;;;5043615;28;20488;-73
2021/05/23 00:34:45;;;;;;;2.72;1.35;;;9.70;99.90;;;;;;5045771;28;20477;-73
2021/05/23 00:37:10;;;;;;;7.53;1.38;;;9.60;99.90;;;;;;5026212;28;20026;-75
2021/05/23 00:39:36;;;;;;;3.42;1.00;;;9.60;99.90;;;;;;5008094;28;20046;-74
2021/05/23 00:42:02;;;;;;;2.00;1.25;;;9.60;99.90;;;;;;5025789;28;20018;-76
2021/05/23 00:44:28;;;;;;;5.55;1.10;;;9.60;99.90;;;;;;5025912;28;20076;-73
2021/05/23 00:46:53;;;;;;;6.93;1.00;;;9.60;99.90;;;;;;5007737;28;20477;-73
2021/05/23 00:49:19;;;;;;;1.70;1.05;;;9.60;99.90;;;;;;5007890;28;20036;-74
2021/05/23 00:51:44;;;;;;;2.08;1.23;;;9.60;99.90;;;;;;5025654;28;20030;-74
2021/05/23 00:54:10;;;;;;;8.45;1.17;;;9.60;99.90;;;;;;5025334;28;20125;-73
2021/05/23 00:56:36;;;;;;;2.28;1.00;;;9.60;99.90;;;;;;5025817;28;20045;-75
2021/05/23 00:59:02;;;;;;;1.80;0.98;;;9.60;99.90;;;;;;5025699;28;20093;-73
2021/05/23 01:01:53;;;;;;;3.45;1.00;;;9.60;99.90;;;;;;5003585;28;20089;-72
2021/05/23 01:04:19;;;;;;;2.45;0.98;;;9.50;99.90;;;;;;5004700;28;20252;-74
2021/05/23 01:06:44;;;;;;;5.32;1.63;;;9.50;99.90;;;;;;5005465;28;20101;-72
2021/05/23 01:09:10;;;;;;;1.80;0.98;;;9.50;99.90;;;;;;5005807;28;20018;-73
2021/05/23 01:11:41;;;;;;;5.03;1.40;;;9.50;99.90;;;;;;5005932;28;20030;-71
2021/05/23 01:14:45;;;;;;;4.72;1.33;;;9.50;99.90;;;;;;5005273;28;20053;-75
2021/05/23 01:17:13;;;;;;;3.05;1.30;;;9.40;99.90;;;;;;5005414;28;20058;-73
2021/05/23 01:19:48;;;;;;;3.90;1.52;;;9.50;99.90;;;;;;5003778;28;20061;-75
2021/05/23 01:22:36;;;;;;;1.70;1.25;;;9.40;99.90;;;;;;5004233;28;20387;-74
2021/05/23 01:25:06;;;;;;;5.93;1.15;;;9.40;99.90;;;;;;5004371;28;20041;-77
2021/05/23 01:27:38;;;;;;;3.42;1.15;;;9.40;99.90;;;;;;5005396;28;20030;-74
2021/05/23 01:30:20;;;;;;;6.65;1.30;;;9.40;99.90;;;;;;5004382;28;20037;-72
2021/05/23 01:32:47;;;;;;;4.32;1.33;;;9.40;99.90;;;;;;5004931;28;20177;-74
2021/05/23 01:35:18;;;;;;;3.08;0.80;;;9.30;99.90;;;;;;5005096;28;20030;-71
2021/05/23 01:37:50;;;;;;;3.05;1.23;;;9.30;99.90;;;;;;5003970;28;20026;-75
2021/05/23 01:40:18;;;;;;;4.82;1.17;;;9.30;99.90;;;;;;5005085;28;20038;-73
2021/05/23 01:42:46;;;;;;;2.92;0.98;;;9.30;99.90;;;;;;5003889;28;20022;-72
2021/05/23 01:45:13;;;;;;;2.28;1.40;;;9.20;99.90;;;;;;5005313;28;20099;-74
2021/05/23 01:47:39;;;;;;;1.45;0.95;;;9.20;99.90;;;;;;5003293;28;20030;-73
2021/05/23 01:50:05;;;;;;;3.13;1.58;;;9.20;99.90;;;;;;5004035;28;20030;-75
2021/05/23 01:52:31;;;;;;;3.40;1.20;;;9.10;99.90;;;;;;5004048;28;20062;-74
2021/05/23 01:54:56;;;;;;;1.85;0.82;;;9.10;99.90;;;;;;5003533;28;20030;-74
2021/05/23 01:57:22;;;;;;;1.73;0.90;;;9.10;99.90;;;;;;5005256;28;20061;-73
2021/05/23 01:59:48;;;;;;;3.05;0.90;;;9.10;99.90;;;;;;5004880;28;20039;-73
2021/05/23 02:02:13;;;;;;;2.55;0.77;;;9.00;99.90;;;;;;5015105;28;20057;-72
2021/05/23 02:04:39;;;;;;;0.68;0.65;;;9.00;99.90;;;;;;5024746;28;20082;-74
2021/05/23 02:07:05;;;;;;;8.13;1.05;;;8.90;99.90;;;;;;5024359;28;20030;-75
2021/05/23 02:09:30;;;;;;;1.17;0.88;;;8.90;99.90;;;;;;5006963;28;20121;-73
2021/05/23 02:11:56;;;;;;;1.88;1.00;;;8.80;99.90;;;;;;5024999;28;20496;-73
2021/05/23 02:14:22;;;;;;;5.90;1.08;;;8.80;99.90;;;;;;5007849;28;20394;-75
2021/05/23 02:16:51;;;;;;;4.55;1.05;;;8.80;99.90;;;;;;5028502;28;20036;-73
2021/05/23 02:19:17;;;;;;;5.78;1.25;;;8.80;99.90;;;;;;5028275;28;20056;-72
2021/05/23 02:21:42;;;;;;;1.50;0.68;;;8.80;99.90;;;;;;5027999;28;20029;-74
2021/05/23 02:24:08;;;;;;;6.07;1.40;;;8.70;99.90;;;;;;5028669;28;20090;-73
2021/05/23 02:26:34;;;;;;;1.77;1.42;;;8.70;99.90;;;;;;5010795;28;20021;-75
2021/05/23 02:28:59;;;;;;;1.52;1.05;;;8.70;99.90;;;;;;5010716;28;20030;-72
2021/05/23 02:31:25;;;;;;;11.18;1.45;;;8.70;99.90;;;;;;5028248;28;20148;-73
2021/05/23 02:33:51;;;;;;;1.52;0.98;;;8.60;99.90;;;;;;5028284;28;20516;-74
2021/05/23 02:36:16;;;;;;;1.33;1.05;;;8.60;99.90;;;;;;5027727;28;20025;-74
2021/05/23 02:38:42;;;;;;;2.05;1.23;;;8.60;99.90;;;;;;5028226;28;20076;-73
2021/05/23 02:41:07;;;;;;;6.35;0.95;;;8.50;99.90;;;;;;5027825;28;20482;-74
2021/05/23 02:43:33;;;;;;;3.75;1.42;;;8.50;99.90;;;;;;5027918;28;20030;-75
2021/05/23 02:46:01;;;;;;;2.95;1.13;;;8.50;99.90;;;;;;5028162;28;20081;-74
2021/05/23 02:48:27;;;;;;;1.35;0.95;;;8.50;99.90;;;;;;5027644;28;20018;-74
2021/05/23 02:50:53;;;;;;;2.35;1.30;;;8.50;99.90;;;;;;5010043;28;20063;-74
2021/05/23 02:53:20;;;;;;;2.00;0.95;;;8.50;99.90;;;;;;5027783;28;20022;-75
2021/05/23 02:55:47;;;;;;;0.90;0.77;;;8.50;99.90;;;;;;5027283;28;20049;-74
2021/05/23 02:58:14;;;;;;;7.38;1.58;;;8.40;99.90;;;;;;5027748;28;20026;-75
2021/05/23 03:00:41;;;;;;;3.22;1.00;;;8.40;99.90;;;;;;5027649;28;20113;-74
2021/05/23 03:03:08;;;;;;;3.45;1.40;;;8.40;99.90;;;;;;5026992;28;20073;-72
2021/05/23 03:05:34;;;;;;;4.28;1.70;;;8.40;99.90;;;;;;5027701;28;20045;-75
2021/05/23 03:08:00;;;;;;;2.58;1.27;;;8.30;99.90;;;;;;5027575;28;20026;-75
2021/05/23 03:10:33;;;;;;;2.47;1.15;;;8.30;99.90;;;;;;5009771;28;20030;-74
2021/05/23 03:13:00;;;;;;;1.92;1.13;;;8.30;99.90;;;;;;5027812;28;20026;-74
2021/05/23 03:15:28;;;;;;;2.58;1.08;;;8.30;99.90;;;;;;5027322;28;20048;-75
2021/05/23 03:17:54;;;;;;;3.05;1.10;;;8.30;99.90;;;;;;5009515;28;20036;-74
2021/05/23 03:20:22;;;;;;;5.28;1.20;;;8.30;99.90;;;;;;5027305;28;20045;-74
2021/05/23 03:22:51;;;;;;;5.32;1.20;;;8.20;99.90;;;;;;5027065;28;20026;-74
2021/05/23 03:25:18;;;;;;;0.98;0.68;;;8.20;99.90;;;;;;5026717;28;20026;-74
2021/05/23 03:27:44;;;;;;;1.00;0.90;;;8.20;99.90;;;;;;5027473;28;20033;-75
2021/05/23 03:30:13;;;;;;;2.92;1.20;;;8.10;99.90;;;;;;5026876;28;20148;-75
2021/05/23 03:32:39;;;;;;;2.08;1.05;;;8.10;99.90;;;;;;5026978;28;20034;-74
2021/05/23 03:35:05;;;;;;;1.58;1.20;;;8.10;99.90;;;;;;5027409;28;20033;-76
2021/05/23 03:37:31;;;;;;;6.63;1.70;;;8.00;99.90;;;;;;5008918;28;20029;-75
2021/05/23 03:39:57;;;;;;;3.60;1.35;;;8.00;99.90;;;;;;5027110;28;20467;-75
2021/05/23 03:42:22;;;;;;;3.10;1.05;;;8.00;99.90;;;;;;5027094;28;20030;-71
2021/05/23 03:44:48;;;;;;;1.75;1.17;;;8.00;99.90;;;;;;5026487;28;20034;-72
2021/05/23 03:47:13;;;;;;;2.58;1.10;;;8.00;99.90;;;;;;5026831;28;20151;-73
2021/05/23 03:49:39;;;;;;;7.10;1.83;;;8.00;99.90;;;;;;5026746;28;20037;-70
2021/05/23 03:52:06;;;;;;;4.57;1.33;;;7.90;99.90;;;;;;5040489;28;20040;-73
2021/05/23 03:54:32;;;;;;;3.92;1.20;;;7.90;99.90;;;;;;5046623;28;20056;-75
2021/05/23 03:56:58;;;;;;;4.38;1.67;;;7.90;99.90;;;;;;5046019;28;20033;-73
2021/05/23 03:59:23;;;;;;;3.60;1.20;;;7.90;99.90;;;;;;5045978;28;20045;-73
2021/05/23 04:01:49;;;;;;;5.70;1.60;;;7.90;99.90;;;;;;5046123;28;20054;-73
2021/05/23 04:04:14;;;;;;;4.30;1.50;;;7.90;99.90;;;;;;5046458;28;20041;-74
2021/05/23 04:06:40;;;;;;;3.83;2.13;;;7.90;99.90;;;;;;5046001;28;20081;-74
2021/05/23 04:09:06;;;;;;;1.95;1.08;;;7.90;99.90;;;;;;5046322;28;20021;-72
2021/05/23 04:11:38;;;;;;;6.43;2.15;;;7.90;99.90;;;;;;5046137;28;20029;-73
2021/05/23 04:14:04;;;;;;;6.57;1.50;;;7.80;99.90;;;;;;5046408;28;20477;-75
2021/05/23 04:16:29;;;;;;;10.40;2.58;;;7.90;99.90;;;;;;5046177;28;20053;-73
2021/05/23 04:18:55;;;;;;;3.28;1.73;;;7.90;99.90;;;;;;5045656;28;20037;-73
2021/05/23 04:21:21;;;;;;;3.08;1.23;;;7.90;99.90;;;;;;5046295;28;20051;-73
2021/05/23 04:23:46;;;;;;;1.55;1.17;;;7.90;99.90;;;;;;5046095;28;20029;-73
2021/05/23 04:26:12;;;;;;;3.88;1.00;;;7.90;99.90;;;;;;5045610;28;20029;-73
2021/05/23 04:28:38;;;;;;;2.75;1.70;;;8.00;99.90;;;;;;5046088;28;20091;-73
2021/05/23 04:31:04;;;;;;;10.52;1.83;;;8.00;99.90;;;;;;5045846;28;20469;-72
2021/05/23 04:33:29;;;;;;;2.22;1.58;;;8.00;99.90;;;;;;5045632;28;20029;-72
2021/05/23 04:35:55;;;;;;;3.13;1.20;;;8.00;99.90;;;;;;5045664;28;20048;-72
2021/05/23 04:38:20;;;;;;;2.60;1.75;;;8.00;99.90;;;;;;5044760;28;20044;-74
2021/05/23 04:40:46;;;;;;;3.20;1.38;;;8.10;99.90;;;;;;5045555;28;20030;-73
2021/05/23 04:43:13;;;;;;;11.10;1.50;;;8.10;99.90;;;;;;5045745;28;20476;-76
2021/05/23 04:45:39;;;;;;;8.85;2.00;;;8.10;99.90;;;;;;5045451;28;20059;-74
2021/05/23 04:48:06;;;;;;;1.85;1.05;;;8.10;99.90;;;;;;5045524;28;20029;-73
2021/05/23 04:50:32;;;;;;;2.53;1.27;;;8.20;99.90;;;;;;5027706;28;20026;-73
2021/05/23 04:52:57;;;;;;;4.57;1.65;;;8.20;99.90;;;;;;5027429;28;20037;-73
2021/05/23 04:55:23;;;;;;;2.60;1.67;;;8.20;99.90;;;;;;5045311;28;20025;-73
2021/05/23 04:57:49;;;;;;;6.50;1.75;;;8.20;99.90;;;;;;5027577;28;20042;-72
2021/05/23 05:00:15;;;;;;;10.52;1.70;;;8.20;99.90;;;;;;5027008;28;20030;-76
2021/05/23 05:02:41;;;;;;;3.92;1.58;;;8.20;99.90;;;;;;5026958;28;20053;-77
2021/05/23 05:05:10;;;;;;;12.13;1.83;;;8.30;99.90;;;;;;5045213;28;20025;-73
2021/05/23 05:07:35;;;;;;;4.03;1.30;;;8.30;99.90;;;;;;5027014;28;20064;-73
2021/05/23 05:10:01;;;;;;;2.78;1.05;;;8.40;99.90;;;;;;5045385;28;20025;-74
2021/05/23 05:12:26;;;;;;;7.72;1.38;;;8.40;99.90;;;;;;5045269;28;20029;-73
2021/05/23 05:14:52;;;;;;;6.90;1.70;;;8.40;99.90;;;;;;5044805;28;20025;-74
2021/05/23 05:17:18;;;;;;;7.63;0.80;;;8.40;99.90;;;;;;5032906;28;20037;-76
2021/05/23 05:19:43;;;;;;;5.72;1.70;;;8.50;99.90;;;;;;5031635;28;20029;-73
2021/05/23 05:22:09;;;;;;;6.43;1.58;;;8.50;99.90;;;;;;5037061;28;20108;-75
2021/05/23 05:24:35;;;;;;;1.77;1.30;;;8.50;99.90;;;;;;5025092;28;20034;-73
2021/05/23 05:27:01;;;;;;;13.70;1.50;;;8.60;99.90;;;;;;5006594;28;20022;-73
2021/05/23 05:29:26;;;;;;;12.02;2.05;;;8.60;99.90;;;;;;5007207;28;20041;-71
2021/05/23 05:31:52;;;;;;;1.77;0.88;;;8.70;99.90;;;;;;5025059;28;20093;-73
2021/05/23 05:34:17;;;;;;;1.10;0.82;;;8.70;99.90;;;;;;5024757;28;20108;-74
2021/05/23 05:36:43;;;;;;;9.18;1.83;;;8.70;99.90;;;;;;5024821;28;20030;-73
2021/05/23 05:39:09;;;;;;;3.20;1.55;;;8.80;99.90;;;;;;5024607;28;20049;-76
2021/05/23 05:41:35;;;;;;;7.38;1.55;;;8.80;99.90;;;;;;5007036;28;20030;-70
2021/05/23 05:44:01;;;;;;;4.60;1.70;;;8.90;99.90;;;;;;5025053;28;20072;-71
2021/05/23 05:46:27;;;;;;;15.05;1.98;;;8.90;99.90;;;;;;5025107;28;20022;-76
2021/05/23 05:48:52;;;;;;;6.60;1.38;;;8.90;99.90;;;;;;5024014;28;20037;-75
2021/05/23 05:51:18;;;;;;;1.40;0.90;;;8.90;99.90;;;;;;5024698;28;20034;-73
2021/05/23 05:53:44;;;;;;;6.18;1.42;;;9.00;99.90;;;;;;5024695;28;20034;-73
2021/05/23 05:56:09;;;;;;;3.65;1.52;;;9.00;99.90;;;;;;5024319;28;20026;-75
2021/05/23 05:58:35;;;;;;;8.43;1.35;;;9.10;99.90;;;;;;5024235;28;20045;-75
2021/05/23 06:01:02;;;;;;;10.93;1.95;;;9.10;99.90;;;;;;5024138;28;20087;-74
2021/05/23 06:03:27;;;;;;;3.90;1.42;;;9.20;99.90;;;;;;5006739;28;20475;-75
2021/05/23 06:05:53;;;;;;;6.65;1.15;;;9.20;99.90;;;;;;5024930;28;20162;-76
2021/05/23 06:08:19;;;;;;;2.42;0.98;;;9.30;99.90;;;;;;5024700;28;20053;-75
2021/05/23 06:10:44;;;;;;;5.85;1.20;;;9.30;99.90;;;;;;5024198;28;20490;-75
2021/05/23 06:13:10;;;;;;;5.85;1.42;;;9.30;99.90;;;;;;5024597;28;20030;-75
2021/05/23 06:15:36;;;;;;;3.80;1.23;;;9.40;99.90;;;;;;5023396;28;20388;-77
2021/05/23 06:18:01;;;;;;;11.93;1.48;;;9.40;99.90;;;;;;5006444;28;20049;-72
2021/05/23 06:20:27;;;;;;;6.28;1.35;;;9.50;99.90;;;;;;5024497;28;20044;-74
2021/05/23 06:22:53;;;;;;;1.38;0.88;;;9.50;99.90;;;;;;5024550;28;20394;-75
2021/05/23 06:25:19;;;;;;;3.60;1.20;;;9.60;99.90;;;;;;5006602;28;20045;-75
2021/05/23 06:27:45;;;;;;;3.33;0.98;;;9.70;99.90;;;;;;5023215;28;20050;-75
2021/05/23 06:30:11;;;;;;;6.47;1.10;;;9.70;99.90;;;;;;5006634;28;20057;-74
2021/05/23 06:32:36;;;;;;;23.50;2.15;;;9.70;99.90;;;;;;5022478;28;20026;-75
2021/05/23 06:35:03;;;;;;;1.65;0.88;;;9.80;99.90;;;;;;5024718;28;20026;-71
2021/05/23 06:37:29;;;;;;;1.60;1.08;;;9.80;99.90;;;;;;5024518;28;20057;-73
2021/05/23 06:39:55;;;;;;;1.25;0.88;;;9.90;99.90;;;;;;5023760;28;20509;-73
2021/05/23 06:42:21;;;;;;;7.32;1.20;;;10.00;99.90;;;;;;5024487;28;20034;-71
2021/05/23 06:44:46;;;;;;;15.18;1.00;;;10.00;99.90;;;;;;5006496;28;20190;-75
2021/05/23 06:47:12;;;;;;;5.30;1.83;;;10.00;99.90;;;;;;5023712;28;20030;-73
2021/05/23 06:49:38;;;;;;;0.90;0.80;;;10.00;99.90;;;;;;5024282;28;20038;-74
2021/05/23 06:52:04;;;;;;;3.28;0.90;;;10.00;99.90;;;;;;5007007;28;20049;-73
2021/05/23 06:54:29;;;;;;;1.75;0.88;;;10.10;99.90;;;;;;5024002;28;20099;-76
2021/05/23 06:56:55;;;;;;;4.47;1.08;;;10.10;99.90;;;;;;5024219;28;20081;-74
2021/05/23 06:59:23;;;;;;;6.03;1.20;;;10.20;99.90;;;;;;5023940;28;20120;-75
2021/05/23 07:01:48;;;;;;;1.17;0.85;;;10.30;99.90;;;;;;5026194;28;20046;-74
2021/05/23 07:04:14;;;;;;;5.20;1.27;;;10.40;99.90;;;;;;5025379;28;20052;-77
2021/05/23 07:06:39;;;;;;;2.10;1.13;;;10.40;99.90;;;;;;5015080;28;20044;-73
2021/05/23 07:09:05;;;;;;;3.72;1.20;;;10.60;99.90;;;;;;5043596;28;20030;-74
2021/05/23 07:11:31;;;;;;;1.42;0.60;;;10.60;99.90;;;;;;5027572;28;20036;-75
2021/05/23 07:13:57;;;;;;;2.13;0.85;;;10.70;99.90;;;;;;5032394;28;20037;-76
2021/05/23 07:16:22;;;;;;;5.85;0.73;;;10.70;99.90;;;;;;5047072;28;20030;-74
2021/05/23 07:18:48;;;;;;;4.03;0.93;;;10.80;99.90;;;;;;5047088;28;20041;-74
2021/05/23 07:21:13;;;;;;;2.40;1.08;;;10.90;99.90;;;;;;5046859;28;20039;-75
2021/05/23 07:23:39;;;;;;;1.35;1.00;;;10.90;99.90;;;;;;5047010;28;20021;-76
2021/05/23 07:26:05;;;;;;;1.98;0.85;;;11.00;99.90;;;;;;5047043;28;20071;-74
2021/05/23 07:28:33;;;;;;;1.52;0.65;;;11.00;99.90;;;;;;5047041;28;20026;-76
2021/05/23 07:30:59;;;;;;;5.00;0.77;;;11.00;99.90;;;;;;5047208;28;20116;-76
2021/05/23 07:33:25;;;;;;;5.53;0.85;;;11.10;99.90;;;;;;5028899;28;20155;-71
2021/05/23 07:35:51;;;;;;;3.15;0.75;;;11.20;99.90;;;;;;5046308;28;20033;-77
2021/05/23 07:38:17;;;;;;;5.22;0.80;;;11.20;99.90;;;;;;5046906;28;20036;-75
2021/05/23 07:40:43;;;;;;;4.57;0.85;;;11.20;99.90;;;;;;5036404;28;20034;-73
2021/05/23 07:43:08;;;;;;;6.38;1.00;;;11.30;99.90;;;;;;5013139;28;20097;-74
2021/05/23 07:45:34;;;;;;;0.38;0.28;;;11.40;99.90;;;;;;5046555;28;20026;-74
2021/05/23 07:48:00;;;;;;;7.05;0.98;;;11.50;99.90;;;;;;5027331;28;20022;-72
2021/05/23 07:50:26;;;;;;;1.85;0.43;;;11.50;99.90;;;;;;5040080;28;20040;-74
2021/05/23 07:52:52;;;;;;;5.68;1.50;;;11.60;99.90;;;;;;5046597;28;20037;-73
2021/05/23 07:55:18;;;;;;;2.65;0.68;;;11.60;99.90;;;;;;5045892;28;20029;-74
2021/05/23 07:57:45;;;;;;;1.83;0.55;;;11.60;99.90;;;;;;5022184;28;20493;-73
2021/05/23 08:00:14;;;;;;;3.58;1.33;;;11.60;99.90;;;;;;5025423;28;20038;-76
2021/05/23 08:02:40;;;;;;;4.82;1.23;;;11.60;99.90;;;;;;5024918;28;20498;-75
2021/05/23 08:05:06;;;;;;;4.88;0.50;;;11.60;99.90;;;;;;5026085;28;20040;-72
2021/05/23 08:07:32;;;;;;;2.47;1.05;;;11.70;99.90;;;;;;5025154;28;20033;-74
2021/05/23 08:09:58;;;;;;;1.10;0.57;;;11.80;99.90;;;;;;5008267;28;20030;-73
2021/05/23 08:12:23;;;;;;;1.90;1.13;;;11.80;99.90;;;;;;5025466;28;20542;-74
2021/05/23 08:14:49;;;;;;;2.38;1.10;;;11.90;99.90;;;;;;5025524;28;20034;-74
2021/05/23 08:17:15;;;;;;;8.00;1.08;;;11.90;99.90;;;;;;5025464;28;20034;-73
2021/05/23 08:19:40;;;;;;;0.80;0.40;;;12.00;99.90;;;;;;5025468;28;20124;-75
2021/05/23 08:22:06;;;;;;;4.63;0.70;;;12.00;99.90;;;;;;5025502;28;20026;-74
2021/05/23 08:24:33;;;;;;;1.45;0.50;;;12.20;99.90;;;;;;5025680;28;20030;-73
2021/05/23 08:27:03;;;;;;;1.75;0.88;;;12.40;99.90;;;;;;5026478;28;20084;-74
2021/05/23 08:29:30;;;;;;;0.85;0.60;;;12.50;99.90;;;;;;5008364;28;20359;-76
2021/05/23 08:32:00;;;;;;;4.43;0.70;;;12.40;99.90;;;;;;5025538;28;20026;-74
2021/05/23 08:34:27;;;;;;;5.28;0.80;;;12.30;99.90;;;;;;5025348;28;20034;-74
2021/05/23 08:36:53;;;;;;;2.13;0.70;;;12.30;99.90;;;;;;5025170;28;20121;-76
2021/05/23 08:39:21;;;;;;;0.90;0.35;;;12.40;99.90;;;;;;5006814;28;20519;-72
2021/05/23 08:41:48;;;;;;;1.27;0.60;;;12.50;99.90;;;;;;5007491;28;20036;-73
2021/05/23 08:44:22;;;;;;;0.63;0.40;;;12.60;99.90;;;;;;5025540;28;20088;-73
2021/05/23 08:46:51;;;;;;;1.35;0.47;;;12.60;99.90;;;;;;5025235;28;20085;-75
2021/05/23 08:49:22;;;;;;;1.08;0.90;;;12.70;99.90;;;;;;5034656;28;20065;-74
2021/05/23 08:51:49;;;;;;;1.20;0.60;;;12.70;99.90;;;;;;5031924;28;20041;-74
2021/05/23 08:54:16;;;;;;;3.78;0.80;;;12.80;99.90;;;;;;5025634;28;20444;-72
2021/05/23 08:56:43;;;;;;;4.60;0.35;;;13.00;99.90;;;;;;5025335;28;20033;-72
2021/05/23 08:59:10;;;;;;;0.32;0.30;;;13.00;99.90;;;;;;5024899;28;20041;-77
2021/05/23 09:01:38;;;;;;;3.20;0.82;;;13.00;99.90;;;;;;5031584;28;20049;-73
2021/05/23 09:04:06;;;;;;;0.30;0.30;;;13.20;99.90;;;;;;5045255;28;20485;-74
2021/05/23 09:06:37;;;;;;;0.30;0.20;;;13.40;99.90;;;;;;5044588;28;20032;-77
2021/05/23 09:09:08;;;;;;;1.13;0.68;;;13.60;99.90;;;;;;5025480;28;20030;-75
2021/05/23 09:11:36;;;;;;;1.20;0.40;;;13.80;99.90;;;;;;5025485;28;20076;-75
2021/05/23 09:14:06;;;;;;;0.32;0.30;;;14.00;99.90;;;;;;5024980;28;20030;-76
2021/05/23 09:16:39;;;;;;;1.42;0.75;;;14.30;99.90;;;;;;5042953;28;20056;-76
2021/05/23 09:19:06;;;;;;;3.77;0.63;;;14.20;99.90;;;;;;5023953;28;20065;-74
2021/05/23 09:21:35;;;;;;;2.17;0.95;;;14.00;99.90;;;;;;5043522;28;20040;-74
2021/05/23 09:24:07;;;;;;;1.17;0.60;;;14.00;99.90;;;;;;5026620;28;20036;-74
2021/05/23 09:26:50;;;;;;;1.30;0.65;;;14.00;99.90;;;;;;5044588;28;20029;-74
2021/05/23 09:29:19;;;;;;;0.50;0.50;;;14.00;99.90;;;;;;5026701;28;20033;-78
2021/05/23 09:31:48;;;;;;;4.90;0.50;;;14.10;99.90;;;;;;5044591;28;20021;-75
2021/05/23 09:34:40;;;;;;;0.73;0.50;;;14.30;99.90;;;;;;5044267;28;20045;-71
2021/05/23 09:37:13;;;;;;;1.60;0.80;;;14.50;99.90;;;;;;5041490;28;20073;-75
2021/05/23 09:39:39;;;;;;;1.48;0.65;;;14.70;99.90;;;;;;5014475;28;20053;-76
2021/05/23 09:42:11;;;;;;;1.08;0.63;;;14.60;99.90;;;;;;5021700;28;20038;-75
2021/05/23 09:44:40;;;;;;;0.77;0.57;;;14.60;99.90;;;;;;5035657;28;20513;-75
2021/05/23 09:47:11;;;;;;;4.90;0.93;;;14.50;99.90;;;;;;5025893;28;20029;-73
2021/05/23 09:49:46;;;;;;;1.75;0.73;;;14.40;99.90;;;;;;5044048;28;20081;-74
2021/05/23 09:52:30;;;;;;;1.38;0.70;;;14.40;99.90;;;;;;5026828;28;20077;-73
2021/05/23 09:54:59;;;;;;;1.27;0.95;;;14.40;99.90;;;;;;5025815;28;20421;-70
2021/05/23 09:57:26;;;;;;;6.13;0.82;;;14.50;99.90;;;;;;5022576;28;20390;-71
2021/05/23 10:00:06;;;;;;;2.20;0.82;;;14.80;99.90;;;;;;5023885;28;20877;-73
2021/05/23 10:02:32;;;;;;;2.53;0.73;;;15.00;99.90;;;;;;5024388;28;20053;-73
2021/05/23 10:05:05;;;;;;;2.67;0.95;;;15.10;99.90;;;;;;5006997;28;20482;-71
2021/05/23 10:07:33;;;;;;;1.05;0.80;;;15.30;99.90;;;;;;5023789;28;20030;-74
2021/05/23 10:09:59;;;;;;;1.33;0.68;;;15.20;99.90;;;;;;5024384;28;20111;-73
2021/05/23 10:12:25;;;;;;;2.05;0.93;;;15.20;99.90;;;;;;5024426;28;20085;-74
2021/05/23 10:14:50;;;;;;;3.35;0.75;;;15.40;99.90;;;;;;5024823;28;20034;-74
2021/05/23 10:17:17;;;;;;;1.75;0.80;;;15.30;99.90;;;;;;5024208;28;20026;-75
2021/05/23 10:19:46;;;;;;;1.48;0.88;;;15.10;99.90;;;;;;5006495;28;20042;-73
2021/05/23 10:22:12;;;;;;;1.40;0.70;;;15.00;99.90;;;;;;5024381;28;20462;-72
2021/05/23 10:24:52;;;;;;;1.60;0.90;;;15.00;99.90;;;;;;5024345;28;20101;-73
2021/05/23 10:27:22;;;;;;;1.83;1.25;;;14.90;99.90;;;;;;5024583;28;20385;-70
2021/05/23 10:29:50;;;;;;;8.30;1.17;;;14.90;99.90;;;;;;5008601;28;20022;-72
2021/05/23 10:32:19;;;;;;;4.10;1.10;;;15.10;99.90;;;;;;5043704;28;20030;-73
2021/05/23 10:34:48;;;;;;;7.55;1.25;;;15.30;99.90;;;;;;5025682;28;20072;-71
2021/05/23 10:37:17;;;;;;;3.83;1.33;;;15.50;99.90;;;;;;5027915;28;20022;-74
2021/05/23 10:39:50;;;;;;;2.70;1.52;;;15.90;99.90;;;;;;5036901;28;20064;-73
2021/05/23 10:42:16;;;;;;;1.30;0.90;;;16.10;99.90;;;;;;5029834;28;20037;-75
2021/05/23 10:44:43;;;;;;;6.93;1.33;;;16.10;99.90;;;;;;5047530;28;20042;-73
2021/05/23 10:47:15;;;;;;;2.50;1.52;;;16.00;99.90;;;;;;5047536;28;20022;-74
2021/05/23 10:49:51;;;;;;;1.73;0.52;;;15.80;99.90;;;;;;5047867;28;20030;-74
2021/05/23 10:52:17;;;;;;;3.05;1.00;;;15.80;99.90;;;;;;5029259;28;20033;-73
2021/05/23 10:55:16;;;;;;;2.53;1.50;;;15.70;99.90;;;;;;5047802;28;20029;-75
2021/05/23 10:57:49;;;;;;;3.28;1.50;;;15.50;99.90;;;;;;5014529;28;20100;-74
2021/05/23 11:00:27;;;;;;;2.47;1.58;;;15.50;99.90;;;;;;5029098;28;20044;-76
2021/05/23 11:02:57;;;;;;;2.38;1.30;;;15.50;99.90;;;;;;5027551;28;20073;-74
2021/05/23 11:05:23;;;;;;;1.77;1.02;;;15.50;99.90;;;;;;5027205;28;20030;-74
2021/05/23 11:07:59;;;;;;;1.73;1.52;;;15.50;99.90;;;;;;5029711;28;20021;-74
2021/05/23 11:10:30;;;;;;;2.40;1.50;;;15.40;99.90;;;;;;5027750;28;20026;-74
2021/05/23 11:12:58;;;;;;;3.72;1.65;;;15.30;99.90;;;;;;5027506;28;20034;-75
2021/05/23 11:15:25;;;;;;;6.22;2.30;;;15.20;99.90;;;;;;5009006;28;20048;-72
2021/05/23 11:17:53;;;;;;;6.70;1.50;;;15.00;99.90;;;;;;5025474;28;20037;-73
2021/05/23 11:20:24;;;;;;;5.28;1.77;;;14.70;99.90;;;;;;5026450;28;20038;-73
2021/05/23 11:23:02;;;;;;;2.22;1.50;;;14.60;99.90;;;;;;5027355;28;20030;-76
2021/05/23 11:25:28;;;;;;;5.22;1.92;;;14.60;99.90;;;;;;5026016;28;20030;-73
2021/05/23 11:28:02;;;;;;;4.30;1.95;;;14.60;99.90;;;;;;5025089;28;20026;-74
2021/05/23 11:30:37;;;;;;;4.40;1.50;;;14.60;99.90;;;;;;5028526;28;20033;-74
2021/05/23 11:33:13;;;;;;;1.92;1.23;;;14.70;99.90;;;;;;5027494;28;20026;-76
2021/05/23 11:35:40;;;;;;;2.33;1.38;;;14.80;99.90;;;;;;5010120;28;20037;-75
2021/05/23 11:38:07;;;;;;;2.70;1.40;;;14.80;99.90;;;;;;5038193;28;20025;-76
2021/05/23 11:40:38;;;;;;;3.53;1.60;;;14.90;99.90;;;;;;5046611;28;20030;-76
2021/05/23 11:43:14;;;;;;;1.33;1.02;;;15.00;99.90;;;;;;5025262;28;20033;-76
2021/05/23 11:46:02;;;;;;;5.03;1.27;;;15.00;99.90;;;;;;5007848;28;20026;-74
2021/05/23 11:48:41;;;;;;;3.65;1.60;;;15.00;99.90;;;;;;5026295;28;20037;-74
2021/05/23 11:51:13;;;;;;;4.05;2.05;;;15.10;99.90;;;;;;5026362;28;20028;-74
2021/05/23 11:53:43;;;;;;;4.10;1.45;;;15.00;99.90;;;;;;5008260;28;20116;-75
2021/05/23 11:56:14;;;;;;;1.85;1.30;;;15.10;99.90;;;;;;5026777;28;20018;-72
2021/05/23 11:58:44;;;;;;;4.70;1.77;;;15.10;99.90;;;;;;5026820;28;20038;-77
2021/05/23 12:01:19;;;;;;;5.43;1.80;;;15.40;99.90;;;;;;5026218;28;20045;-73
2021/05/23 12:03:56;;;;;;;13.93;2.05;;;15.70;99.90;;;;;;5026568;28;20025;-74
2021/05/23 12:06:21;;;;;;;3.83;1.95;;;15.80;99.90;;;;;;5026430;28;20037;-76
2021/05/23 12:08:47;;;;;;;3.90;1.85;;;15.70;99.90;;;;;;5026413;28;20041;-75
2021/05/23 12:11:13;;;;;;;6.65;2.25;;;15.50;99.90;;;;;;5026875;28;20037;-75
2021/05/23 12:13:44;;;;;;;3.17;1.63;;;15.40;99.90;;;;;;5026411;28;20026;-77
2021/05/23 12:16:15;;;;;;;7.70;2.17;;;15.40;99.90;;;;;;5026502;28;20030;-75
2021/05/23 12:18:45;;;;;;;3.88;1.75;;;15.40;99.90;;;;;;5026332;28;20038;-74
2021/05/23 12:21:16;;;;;;;3.25;1.80;;;15.40;99.90;;;;;;5026031;28;20046;-72
2021/05/23 12:23:44;;;;;;;2.95;1.58;;;15.40;99.90;;;;;;5008654;28;20025;-75
2021/05/23 12:26:12;;;;;;;4.88;2.03;;;15.40;99.90;;;;;;5026270;28;20026;-75
2021/05/23 12:28:48;;;;;;;3.25;1.98;;;15.40;99.90;;;;;;5026114;28;20030;-74
2021/05/23 12:31:20;;;;;;;4.45;1.27;;;15.60;99.90;;;;;;5026203;28;20029;-76
2021/05/23 12:33:56;;;;;;;18.38;1.90;;;15.60;99.90;;;;;;5025924;28;20018;-75
2021/05/23 12:36:27;;;;;;;2.40;1.35;;;15.60;99.90;;;;;;5026055;28;20026;-75
2021/05/23 12:39:07;;;;;;;1.50;0.93;;;15.50;99.90;;;;;;5007740;28;20072;-74
2021/05/23 12:41:44;;;;;;;2.10;1.20;;;15.40;99.90;;;;;;5008100;28;20493;-74
2021/05/23 12:44:24;;;;;;;3.00;1.50;;;15.20;99.90;;;;;;5024941;28;20033;-77
2021/05/23 12:46:51;;;;;;;1.52;1.00;;;15.10;99.90;;;;;;5025271;28;20029;-76
2021/05/23 12:49:22;;;;;;;1.75;1.10;;;14.90;99.90;;;;;;5007469;28;20033;-73
2021/05/23 12:51:50;;;;;;;2.30;1.17;;;14.80;99.90;;;;;;5007815;28;20033;-75
2021/05/23 12:54:27;;;;;;;2.05;1.38;;;14.80;99.90;;;;;;5025643;28;20033;-75